EDMU weather

Gundelfingen Airport
Gundelfingen a.d.Donau, Bavaria, Germany

Public forecast

Using degrees Celsius for public forecast. Weather courtesy of forecast.io.

Closest aviation weather report (METAR) to Gundelfingen Airport

Closest report is Augsburg Airport, 24.4 nm (45.1 km) ESE. Retrieved 2020/08/06 15:20 UTC (37 minutes ago):

EDMA 061520Z 06006KT 010V090 CAVOK 24/15 Q1021

Closest aviation forecast (TAF) to Gundelfingen Airport

Forecast is more than 12 hours old.

Closest forecast is Augsburg Airport, 24.4 nm (45.1 km) ESE. Retrieved 2009/12/02 06:00 UTC (11 years ago):

TAF COR EDMA 020600Z 0206/0220 VRB03KT 3000 BR SCT004 PROB40 TEMPO 0206/0208 0600 FG VV002 BECMG 0208/0210 9999